Stations météo

Publicité
Klippeneck, Allemagne (10818): Température de l'air & dewpoint: 14.07.2018 14:00:00 - 20.07.2018 14:00:00 (CEST)Klippeneck, Allemagne (10818): Température de l'air 5cm & Température de l'air -5cm: 14.07.2018 14:00:00 - 20.07.2018 14:00:00 (CEST)Klippeneck, Allemagne (10818): Température de l'air -20cm & Température de l'air -100cm: 14.07.2018 14:00:00 - 20.07.2018 14:00:00 (CEST)Klippeneck, Allemagne (10818): Vitesse du vent & gusts: 14.07.2018 14:00:00 - 20.07.2018 14:00:00 (CEST)Klippeneck, Allemagne (10818): Direction du vent: 14.07.2018 14:00:00 - 20.07.2018 14:00:00 (CEST)Klippeneck, Allemagne (10818): visibility: 14.07.2018 14:00:00 - 20.07.2018 14:00:00 (CEST)Klippeneck, Allemagne (10818): Ensoleillement: 14.07.2018 14:00:00 - 20.07.2018 14:00:00 (CEST)Klippeneck, Allemagne (10818): Quantités de précipitations: 14.07.2018 14:00:00 - 20.07.2018 14:00:00 (CEST)
Date & Time tt [°C] td [°C] tt 5cm [°C] tt -5cm [°C] tt -20cm [°C] tt -100cm [°C] ff [km/h] ff [knt] fx [km/h] fx [knt] dd vv [km] sd [min] rr [mm]
20.07.2018 14:00:00 22,1 11,1 23,7 29,4 22,8 16,4 8 4 19 10 NNW 51 16 0,0
20.07.2018 13:00:00 23,1 9,3 26,1 31,1 22,3 16,4 8 4 17 9 NW 62 47 0,0
20.07.2018 12:00:00 24,0 10,7 29,7 29,9 22,0 16,4 8 4 16 8 W 29 56 0,0
20.07.2018 11:00:00 22,9 10,3 28,0 27,5 21,9 16,4 6 4 10 5 W 34 60 0,0
20.07.2018 10:00:00 22,1 10,5 25,6 24,0 21,9 16,4 4 2 9 5 WSW 41 60 0,0
20.07.2018 09:00:00 19,8 9,1 24,2 21,1 22,1 16,4 8 4 9 5 SSW 62 42 0,0
20.07.2018 08:00:00 18,2 10,2 18,5 19,4 22,3 16,4 3 2 9 5 W 58 37 0,0
20.07.2018 07:00:00 17,6 8,7 16,2 18,5 22,6 16,4 6 3 14 8 SSE 60 27 0,0
20.07.2018 06:00:00 16,2 8,2 14,9 18,5 23,0 16,4 12 7 18 10 ESE 53 0 0,0
20.07.2018 05:00:00 16,1 7,8 14,8 18,9 23,3 16,4 16 9 23 13 E 54 0 0,0
20.07.2018 04:00:00 16,9 7,7 15,5 19,4 23,7 16,4 16 8 22 12 E 57 0 0,0
20.07.2018 03:00:00 17,2 7,6 16,0 20,0 24,0 16,4 16 8 21 11 E 62 0 0,0
20.07.2018 02:00:00 17,7 7,4 16,5 20,7 24,3 16,4 12 7 21 11 ENE 61 0 0,0
20.07.2018 01:00:00 18,0 7,6 16,5 21,5 24,7 16,4 10 5 19 10 ENE 70 0 0,0
20.07.2018 00:00:00 18,4 8,0 17,2 22,5 24,9 16,3 14 8 27 15 ENE 52 0 0,0
19.07.2018 23:00:00 18,7 8,4 17,8 23,7 25,2 16,3 15 8 23 12 ENE 58 0 0,0
19.07.2018 22:00:00 20,6 8,7 20,1 25,4 25,3 16,3 13 7 22 12 ENE 43 0 0,0
19.07.2018 21:00:00 21,5 9,4 21,3 27,0 25,3 16,3 10 5 21 11 NE 31 6 0,0
19.07.2018 20:00:00 23,3 9,5 23,8 29,2 25,1 16,3 5 3 18 10 NNW 65 9 0,0
19.07.2018 19:00:00 24,3 10,0 25,4 31,6 24,7 16,3 13 7 19 10 NW 70 41 0,0
19.07.2018 18:00:00 24,4 8,7 25,3 34,2 24,2 16,3 9 5 18 10 WNW 70 52 0,0
19.07.2018 17:00:00 24,9 7,7 29,3 35,2 23,6 16,3 10 5 18 10 NW 39 58 0,0
19.07.2018 16:00:00 24,4 9,8 29,1 35,3 23,0 16,3 9 5 23 13 E 33 58 0,0
19.07.2018 15:00:00 24,8 9,6 29,9 34,5 22,3 16,3 11 6 24 13 NW 30 60 0,0
19.07.2018 14:00:00 24,0 10,5 29,3 33,2 21,8 16,3 12 6 22 12 WNW 29 60 0,0
19.07.2018 13:00:00 24,0 10,7 28,5 31,1 21,3 16,3 10 5 22 12 WNW 27 60 0,0
19.07.2018 12:00:00 22,3 10,2 27,0 29,0 21,0 16,3 14 8 23 12 WNW 32 60 0,0
19.07.2018 11:00:00 21,4 11,1 25,6 25,9 20,8 16,3 8 5 14 8 WNW 43 60 0,0
19.07.2018 10:00:00 18,7 11,0 23,3 22,9 20,9 16,3 7 4 14 7 NW 39 60 0,0
19.07.2018 09:00:00 19,7 9,8 22,1 19,8 21,0 16,3 9 5 18 10 E 52 54 0,0
19.07.2018 08:00:00 18,0 8,9 18,6 17,9 21,3 16,3 13 7 19 11 E 70 42 0,0
19.07.2018 07:00:00 15,6 8,4 14,8 16,8 21,6 16,3 11 6 16 9 E 70 17 0,0
19.07.2018 06:00:00 14,9 7,4 12,9 17,0 22,0 16,3 9 5 16 9 E 70 0 0,0
19.07.2018 05:00:00 15,9 7,5 14,3 17,6 22,3 16,3 13 7 22 12 E 70 0 0,0
19.07.2018 04:00:00 15,5 7,6 14,4 18,2 22,6 16,3 13 7 21 11 E 70 0 0,0
19.07.2018 03:00:00 16,2 7,6 14,8 18,8 23,0 16,3 15 8 26 14 E 70 0 0,0
19.07.2018 02:00:00 16,6 7,8 15,4 19,5 23,3 16,3 19 10 31 17 E 70 0 0,0
19.07.2018 01:00:00 16,8 8,4 15,9 20,2 23,6 16,3 18 10 32 17 E 70 0 0,0
19.07.2018 00:00:00 17,4 9,0 16,5 21,2 23,9 16,3 19 11 32 17 ENE 68 0 0,0
18.07.2018 23:00:00 17,8 9,9 16,9 22,3 24,2 16,3 19 10 34 18 ENE 57 0 0,0
18.07.2018 22:00:00 18,7 11,1 17,9 23,8 24,3 16,3 16 8 28 15 ENE 48 0 0,0
18.07.2018 21:00:00 19,8 11,6 19,1 25,7 24,3 16,3 12 7 26 14 NE 43 31 0,0
18.07.2018 20:00:00 21,8 11,5 21,5 28,5 24,0 16,3 10 5 18 10 N 68 60 0,0
18.07.2018 19:00:00 23,4 11,0 24,3 30,6 23,7 16,2 10 5 20 11 NNW 61 54 0,0
18.07.2018 18:00:00 24,5 11,2 26,6 32,6 23,1 16,2 13 7 24 13 WNW 54 57 0,0
18.07.2018 17:00:00 23,7 8,3 26,9 33,9 22,5 16,2 13 7 23 13 NW 31 60 0,0
18.07.2018 16:00:00 24,7 10,2 28,5 34,3 21,8 16,2 12 6 23 12 WNW 35 60 0,0
18.07.2018 15:00:00 23,7 10,5 29,8 34,0 21,1 16,2 9 5 17 9 W 43 58 0,0
18.07.2018 14:00:00 23,5 13,2 28,7 32,2 20,4 16,2 6 3 22 12 NW 35 55 0,0
18.07.2018 13:00:00 22,5 12,4 27,8 30,5 19,9 16,2 9 5 17 9 WNW 42 55 0,0
18.07.2018 12:00:00 20,8 11,2 26,7 28,2 19,5 16,2 9 5 14 8 NW 33 60 0,0
18.07.2018 11:00:00 20,5 12,3 25,5 25,1 19,3 16,2 6 4 13 7 W 27 60 0,0
18.07.2018 10:00:00 19,2 12,5 22,5 21,7 19,2 16,2 6 3 9 5 W 33 60 0,0
18.07.2018 09:00:00 17,5 11,4 20,9 18,4 19,4 16,2 8 4 13 7 N 44 60 0,0
18.07.2018 08:00:00 17,0 10,5 17,9 16,1 19,6 16,2 8 4 13 7 N 45 60 0,0
18.07.2018 07:00:00 15,9 10,6 14,8 14,7 19,9 16,2 7 4 12 6 NNW 46 28 0,0
18.07.2018 06:00:00 14,4 11,0 9,7 14,8 20,2 16,2 7 4 9 5 WNW 34 0 0,0
18.07.2018 05:00:00 15,1 11,2 10,7 15,3 20,5 16,2 4 2 8 4 SSW 36 0 0,0
18.07.2018 04:00:00 15,9 11,3 12,4 15,9 20,8 16,2 6 3 11 6 SSW 39 0 0,0
18.07.2018 03:00:00 16,0 11,0 14,4 16,5 21,1 16,2 10 6 14 8 S 41 0 0,0
18.07.2018 02:00:00 16,4 10,3 14,9 16,8 21,4 16,2 8 4 15 8 S 65 0 0,0
18.07.2018 01:00:00 17,0 10,1 15,5 17,2 21,7 16,2 10 6 13 7 S 62 0 0,0
18.07.2018 00:00:00 14,9 9,7 11,7 17,6 22,0 16,2 2 1 9 5 SSW 64 0 0,0
17.07.2018 23:00:00 13,3 10,5 11,7 18,5 22,3 16,2 9 5 15 8 E 45 0 0,0
17.07.2018 22:00:00 14,7 11,1 13,0 20,1 22,4 16,2 9 5 11 6 NE 36 0 0,0
17.07.2018 21:00:00 15,9 12,5 14,7 22,0 22,5 16,2 6 3 26 14 SE 45 0 0,3
17.07.2018 20:00:00 18,4 10,5 18,4 23,8 22,4 16,2 17 9 30 16 NW 64 5 0,0
17.07.2018 19:00:00 21,1 9,9 21,4 26,8 22,2 16,2 11 6 21 11 WSW 56 60 0,0
17.07.2018 18:00:00 21,4 10,1 23,7 27,1 22,1 16,2 8 4 15 8 WSW 32 50 0,0
17.07.2018 17:00:00 18,2 10,0 18,1 24,1 21,9 16,2 11 6 23 12 SSW 41 0 0,1
17.07.2018 16:00:00 20,0 10,1 21,7 27,1 21,5 16,2 9 5 23 13 WSW 64 16 0,0
17.07.2018 15:00:00 19,2 8,4 20,5 27,7 21,0 16,2 11 6 33 18 NNE 66 13 0,0
17.07.2018 14:00:00 20,2 9,0 22,0 31,0 20,4 16,1 15 8 29 15 ENE 70 41 0,0
17.07.2018 13:00:00 22,2 7,4 24,2 30,5 19,9 16,1 8 5 29 15 WNW 63 55 0,0
17.07.2018 12:00:00 22,1 9,6 25,8 27,5 19,5 16,1 11 6 21 11 WNW 54 59 0,0
17.07.2018 11:00:00 20,4 9,8 23,8 23,7 19,3 16,1 6 4 11 6 W 70 57 0,0
17.07.2018 10:00:00 20,7 10,0 24,1 21,9 19,3 16,1 5 3 11 6 W 56 60 0,0
17.07.2018 09:00:00 19,3 10,1 22,5 18,7 19,4 16,1 6 4 11 6 SW 59 60 0,0
17.07.2018 08:00:00 18,1 10,2 18,7 16,1 19,7 16,1 6 3 10 5 SW 70 55 0,0
17.07.2018 07:00:00 16,8 10,3 15,2 14,3 20,0 16,1 5 3 8 5 SSW 51 33 0,0
17.07.2018 06:00:00 15,2 10,4 10,6 14,2 20,3 16,1 6 3 9 5 SW 53 0 0,0
17.07.2018 05:00:00 15,0 10,2 9,6 14,6 20,7 16,1 6 3 9 5 WSW 56 0 0,0
17.07.2018 04:00:00 14,7 10,2 9,6 15,1 21,1 16,1 4 2 6 4 SW 60 0 0,0
17.07.2018 03:00:00 13,9 9,7 9,8 15,7 21,4 16,1 4 2 6 4 SSW 63 0 0,0
17.07.2018 02:00:00 14,4 9,6 10,8 16,3 21,8 16,1 4 2 8 4 SSW 66 0 0,0
17.07.2018 01:00:00 16,2 9,7 12,3 17,0 22,2 16,1 7 4 10 5 NNE 70 0 0,0
17.07.2018 00:00:00 15,2 10,0 13,1 17,9 22,5 16,1 9 5 14 7 ENE 63 0 0,0
16.07.2018 23:00:00 15,8 10,0 13,7 19,0 22,8 16,1 11 6 16 8 ENE 68 0 0,0
16.07.2018 22:00:00 16,8 10,3 15,4 20,3 23,0 16,1 11 6 18 10 ENE 70 0 0,0
16.07.2018 21:00:00 18,7 10,0 17,5 22,3 23,0 16,1 9 5 16 9 NE 70 48 0,0
16.07.2018 20:00:00 19,4 10,2 18,6 24,6 22,9 16,1 6 4 22 12 NE 70 35 0,0
16.07.2018 19:00:00 20,3 10,7 20,6 27,1 22,6 16,0 6 4 21 11 NNE 70 44 0,0
16.07.2018 18:00:00 22,0 10,2 23,9 29,4 22,2 16,0 8 4 21 11 NNE 69 51 0,0
16.07.2018 17:00:00 23,2 11,3 24,7 30,1 21,8 16,0 9 5 15 8 WNW 36 59 0,0
16.07.2018 16:00:00 21,0 13,4 22,3 28,6 21,4 16,0 6 3 18 10 NNW 38 39 0,6
16.07.2018 15:00:00 21,5 10,7 25,7 29,5 20,9 16,0 8 4 21 11 SSW 46 48 0,0
16.07.2018 14:00:00 20,7 10,8 25,8 28,8 20,4 16,0 13 7 26 14 SW 68 44 0,0
16.07.2018 13:00:00 22,1 12,6 25,4 28,1 20,0 16,0 10 6 19 10 WSW 31 60 0,0
16.07.2018 12:00:00 20,6 11,3 24,9 26,4 19,7 16,0 8 4 14 7 WSW 35 60 0,0
16.07.2018 11:00:00 19,2 11,2 23,3 24,2 19,5 16,0 7 4 12 6 WSW 41 60 0,0
16.07.2018 10:00:00 17,8 9,8 21,2 21,4 19,5 16,0 6 3 10 5 SSW 54 60 0,0
16.07.2018 09:00:00 17,5 11,2 20,0 18,7 19,6 16,0 5 3 9 5 WSW 55 60 0,0
16.07.2018 08:00:00 15,2 11,9 15,0 16,2 19,9 16,0 9 5 10 6 E 55 57 0,0
16.07.2018 07:00:00 12,9 11,9 13,0 15,2 20,1 16,0 4 2 8 4 E 10 6 0,0
16.07.2018 06:00:00 12,8 11,4 12,1 15,3 20,4 16,0 0 0 14 7 N 44 0 0,3
16.07.2018 05:00:00 13,9 11,1 13,3 15,3 20,7 16,0 10 5 29 15 W 37 0 0,0
16.07.2018 04:00:00 14,5 10,8 13,8 15,3 21,1 15,9 16 9 29 16 SW 69 0 0,0
16.07.2018 03:00:00 14,5 11,3 13,8 15,3 21,5 15,9 13 7 24 13 SSW 62 0 0,0
16.07.2018 02:00:00 14,4 11,4 13,2 15,6 21,9 15,9 14 8 27 15 S 48 0 0,0
16.07.2018 01:00:00 14,4 11,9 13,7 16,2 22,3 15,9 16 8 38 20 S 44 0 0,0
16.07.2018 00:00:00 13,4 10,5 13,0 16,8 22,7 15,9 21 11 37 20 ESE 70 0 0,0
15.07.2018 23:00:00 13,3 10,6 13,0 17,7 23,0 15,9 34 19 45 24 ESE 70 0 0,0
15.07.2018 22:00:00 14,4 11,4 13,1 19,8 23,1 15,9 32 18 46 25 ESE 40 0 6,1
15.07.2018 21:00:00 18,2 10,5 17,9 23,6 23,1 15,9 18 10 23 12 E 66 0 0,0
15.07.2018 20:00:00 20,0 10,2 20,0 25,7 23,0 15,9 4 2 14 8 E 70 20 0,0
15.07.2018 19:00:00 21,8 11,6 23,0 27,4 22,8 15,9 9 5 14 8 NW 64 30 0,0
15.07.2018 18:00:00 21,2 11,5 22,7 28,4 22,5 15,8 5 3 16 9 WNW 65 26 0,0
15.07.2018 17:00:00 21,9 10,8 24,5 29,1 22,3 15,8 6 3 24 13 WNW 57 52 0,0
15.07.2018 16:00:00 22,1 11,8 25,7 28,0 22,1 15,8 11 6 25 14 NNW 49 22 0,0
15.07.2018 15:00:00 22,1 10,8 24,9 25,8 22,0 15,8 0 0 14 8 N 70 3 0,0
15.07.2018 14:00:00 19,6 11,6 20,4 24,2 21,8 15,8 10 5 14 8 E 60 0 0,0
15.07.2018 13:00:00 20,3 10,1 22,4 26,3 21,6 15,8 8 4 14 8 ESE 68 10 0,0
15.07.2018 12:00:00 19,4 12,0 20,7 24,8 21,4 15,8 8 5 15 8 S 65 10 0,0
15.07.2018 11:00:00 20,8 12,7 23,7 25,7 21,3 15,8 5 3 13 7 SW 53 37 0,0
15.07.2018 10:00:00 19,7 10,8 22,4 23,5 21,4 15,8 7 4 11 6 S 56 24 0,0
15.07.2018 09:00:00 17,6 12,0 21,1 21,0 21,5 15,8 6 4 20 11 NNW 38 26 0,0
15.07.2018 08:00:00 17,1 11,7 17,7 19,6 21,7 15,8 8 4 16 9 W 70 14 0,0
15.07.2018 07:00:00 17,2 10,9 17,4 19,1 21,9 15,8 9 5 22 12 S 70 21 0,0
15.07.2018 06:00:00 16,5 10,5 15,8 18,9 22,2 15,8 13 7 23 12 SSW 70 0 0,0
15.07.2018 05:00:00 16,0 11,7 15,3 19,4 22,5 15,8 11 6 23 13 SSW 40 0 0,0
15.07.2018 04:00:00 16,7 10,9 16,3 19,6 22,7 15,8 15 8 22 12 SE 44 0 0,0
15.07.2018 03:00:00 18,1 10,7 17,2 20,3 23,0 15,8 18 10 22 12 ESE 46 0 0,0
15.07.2018 02:00:00 18,0 11,2 17,3 20,8 23,3 15,8 18 10 24 13 E 44 0 0,0
15.07.2018 01:00:00 18,0 11,0 17,6 21,4 23,6 15,8 19 10 26 14 E 46 0 0,0
15.07.2018 00:00:00 18,4 10,6 17,7 22,0 23,9 15,7 17 9 21 11 E 44 0 0,0
14.07.2018 23:00:00 18,2 11,1 17,3 22,9 24,1 15,7 14 7 22 12 E 45 0 0,0
14.07.2018 22:00:00 18,9 11,5 17,9 24,4 24,1 15,7 13 7 20 11 E 45 0 0,0
14.07.2018 21:00:00 20,1 11,8 19,8 26,3 24,1 15,7 15 8 24 13 E 49 13 0,0
14.07.2018 20:00:00 21,6 11,5 22,2 29,1 23,9 15,7 10 5 23 12 ENE 51 55 0,0
14.07.2018 19:00:00 23,4 10,4 24,4 30,8 23,6 15,7 10 5 22 12 NNW 59 54 0,0
14.07.2018 18:00:00 24,5 10,9 27,5 31,6 23,2 15,7 8 4 19 10 NW 29 34 0,0
14.07.2018 17:00:00 22,7 10,3 24,8 31,9 22,7 15,7 13 7 21 11 NW 56 35 0,0
14.07.2018 16:00:00 25,3 11,2 29,5 33,6 22,1 15,7 11 6 23 13 NW 33 56 0,0
14.07.2018 15:00:00 23,9 8,9 28,7 33,3 21,6 15,7 8 4 23 13 WSW 45 51 0,0
14.07.2018 14:00:00 24,3 9,0 29,6 32,7 21,0 15,7 9 5 18 10 W 30 60 0,0

tt = Température de l'air
td = dewpoint
tt 5cm = Température de l'air 5cm
tt -5cm = Température de l'air -5cm
tt -20cm = Température de l'air -20cm
tt -100cm = Température de l'air -100cm
ff = Vitesse du vent
fx = gusts
dd = Direction du vent
vv = visibility
sd = Ensoleillement
rr = Quantités de précipitations

stations d'obs. à proximité